This is the latest recevied weather packets stored in our database for station/object HS6PNA-1. If no packets are shown the sender has not sent any weather packets the latest 10 day(s).
| Time | Temp. | Humidity | Pressure | Rain* | Wind** | Luminosity | Snow |
|---|---|---|---|---|---|---|---|
| 1777889535 | 34.44° C | 58% | 1001 hPa | - | - | 44 W/m² | - |
| 1777888610 | 34.44° C | 65% | 1001 hPa | - | - | 66 W/m² | - |
| 1777887685 | 34.44° C | 65% | 1001 hPa | - | - | 78 W/m² | - |
| 1777886761 | 33.89° C | 65% | 1001 hPa | - | - | 67 W/m² | - |
| 1777885836 | 33.89° C | 66% | 1001 hPa | - | - | 47 W/m² | - |
| 1777884912 | 33.33° C | 66% | 1001 hPa | - | - | 33 W/m² | - |
| 1777883987 | 33.33° C | 66% | 1002 hPa | - | - | 23 W/m² | - |
| 1777883063 | 32.78° C | 66% | 1002 hPa | - | - | 21 W/m² | - |
| 1777882139 | 33.33° C | 68% | 1002 hPa | - | - | 27 W/m² | - |
| 1777881214 | 32.78° C | 69% | 1002 hPa | - | - | 37 W/m² | - |
| 1777880290 | 32.22° C | 74% | 1002 hPa | - | - | 51 W/m² | - |
| 1777879365 | 32.78° C | 74% | 1003 hPa | - | - | 85 W/m² | - |
| 1777878441 | 32.22° C | 69% | 1003 hPa | - | - | 66 W/m² | - |
| 1777877517 | 32.22° C | 68% | 1004 hPa | - | - | 30 W/m² | - |
| 1777876592 | 33.33° C | 57% | 1004 hPa | - | - | 16 W/m² | - |
| 1777875667 | 36.11° C | 51% | 1003 hPa | - | - | 31 W/m² | - |
| 1777874742 | 38.89° C | 41% | 1004 hPa | - | - | 244 W/m² | - |
| 1777873818 | 37.78° C | 43% | 1004 hPa | - | - | 107 W/m² | - |
| 1777872893 | 38.33° C | 43% | 1004 hPa | - | - | 64 W/m² | - |
| 1777871969 | 38.33° C | 44% | 1005 hPa | - | - | 271 W/m² | - |
| 1777871044 | 37.78° C | 43% | 1005 hPa | - | - | 117 W/m² | - |
| 1777870120 | 38.33° C | 43% | 1005 hPa | - | - | 349 W/m² | - |
| 1777869195 | 36.67° C | 47% | 1005 hPa | - | - | 71 W/m² | - |
| 1777868271 | 37.22° C | 47% | 1005 hPa | - | - | 79 W/m² | - |
| 1777867346 | 37.22° C | 44% | 1005 hPa | - | - | 114 W/m² | - |
* Rain since midnight (hover to see other rain measurements)
** Current wind speed in m/s (hover to see current wind gust speed)